Time;durP1;ratioP1;P1;durP2;ratioP2;P2;SDS_P1;SDS_P2;PMS_P1;PMS_P2;Temp;Humidity;BMP_temperature;BMP_pressure;BME280_temperature;BME280_humidity;BME280_pressure;Samples;Min_cycle;Max_cycle;Signal;HPM_P1;HPM_P2
2023/01/01 00:00:07;;;;;;;;;;;;;;;18.44;47.76;100708.81;5132952;27;20303;-56
2023/01/01 00:02:33;;;;;;;;;;;;;;;18.43;47.97;100713.47;5151844;27;20500;-56
2023/01/01 00:05:03;;;;;;;;;;;;;;;18.44;47.71;100717.06;5151409;27;19958;-56
2023/01/01 00:07:28;;;;;;;;;;;;;;;18.44;47.69;100709.63;5133720;27;19923;-56
2023/01/01 00:12:39;;;;;;;;;;;;;;;18.44;47.83;100706.03;5109658;28;19966;-56
2023/01/01 00:15:05;;;;;;;;;;;;;;;18.45;47.93;100696.66;5132981;27;20172;-56
2023/01/01 00:17:31;;;;;;;;;;;;;;;18.44;47.71;100704.13;5150528;27;20447;-56
2023/01/01 00:19:56;;;;;;;;;;;;;;;18.44;47.97;100700.53;5152066;27;19971;-55
2023/01/01 00:22:22;;;;;;;;;;;;;;;18.44;48.00;100704.13;5151740;27;19923;-56
2023/01/01 00:25:08;;;;;;;;;;;;;;;18.44;47.67;100712.38;5127369;27;19927;-56
2023/01/01 00:27:33;;;;;;;;;;;;;;;18.43;47.86;100705.19;5131056;28;19976;-56
2023/01/01 00:29:59;;;;;;;;;;;;;;;18.44;47.82;100701.34;5150496;27;19923;-56
2023/01/01 00:32:25;;;;;;;;;;;;;;;18.44;47.75;100711.56;5133267;27;19923;-56
2023/01/01 00:34:51;;;;;;;;;;;;;;;18.44;47.95;100719.84;5121317;28;19931;-56
2023/01/01 00:37:17;;;;;;;;;;;;;;;18.45;47.86;100715.97;5131288;28;19927;-56
2023/01/01 00:39:43;;;;;;;;;;;;;;;18.45;47.97;100721.47;5130935;28;20408;-56
2023/01/01 00:42:08;;;;;;;;;;;;;;;18.45;48.00;100718.72;5131000;28;19928;-56
2023/01/01 00:44:34;;;;;;;;;;;;;;;18.44;47.99;100709.63;5130632;27;20287;-56
2023/01/01 00:46:59;;;;;;;;;;;;;;;18.44;47.93;100717.91;5130951;28;19925;-55
2023/01/01 00:49:25;;;;;;;;;;;;;;;18.44;47.87;100717.06;5130529;28;19937;-56
2023/01/01 00:51:50;;;;;;;;;;;;;;;18.45;47.87;100715.97;5130345;28;19923;-56
2023/01/01 00:54:16;;;;;;;;;;;;;;;18.44;47.96;100720.66;5130111;27;19932;-56
2023/01/01 00:56:41;;;;;;;;;;;;;;;18.45;47.83;100710.44;5130636;28;19923;-56
2023/01/01 00:59:07;;;;;;;;;;;;;;;18.45;48.06;100702.19;5142653;27;19927;-56
2023/01/01 01:01:33;;;;;;;;;;;;;;;18.44;47.97;100715.13;5151144;27;19934;-56
2023/01/01 01:03:59;;;;;;;;;;;;;;;18.45;47.75;100704.94;5145956;27;20291;-56
2023/01/01 01:06:24;;;;;;;;;;;;;;;18.45;47.71;100707.69;5112296;28;19955;-56
2023/01/01 01:08:50;;;;;;;;;;;;;;;18.45;47.67;100710.44;5131787;27;20315;-56
2023/01/01 01:11:17;;;;;;;;;;;;;;;18.45;47.85;100715.97;5172250;27;20380;-56
2023/01/01 01:13:43;;;;;;;;;;;;;;;18.46;47.70;100720.38;5149312;27;19976;-56
2023/01/01 01:16:09;;;;;;;;;;;;;;;18.45;47.99;100724.22;5111382;28;19927;-56
2023/01/01 01:18:35;;;;;;;;;;;;;;;18.44;47.78;100712.38;5134405;27;19927;-56
2023/01/01 01:21:00;;;;;;;;;;;;;;;18.45;47.76;100718.72;5151127;27;19930;-56
2023/01/01 01:23:26;;;;;;;;;;;;;;;18.46;47.70;100717.59;5150367;27;19934;-56
2023/01/01 01:25:51;;;;;;;;;;;;;;;18.44;48.00;100717.91;5130381;27;20166;-56
2023/01/01 01:28:17;;;;;;;;;;;;;;;18.46;47.83;100723.13;5135293;27;19923;-56
2023/01/01 01:30:42;;;;;;;;;;;;;;;18.45;47.91;100730.56;5150777;27;20289;-56
2023/01/01 01:33:08;;;;;;;;;;;;;;;18.45;47.84;100735.25;5150991;27;19927;-56
2023/01/01 01:35:34;;;;;;;;;;;;;;;18.46;47.72;100729.47;5114190;27;19928;-56
2023/01/01 01:37:59;;;;;;;;;;;;;;;18.45;47.66;100733.31;5114600;28;19923;-56
2023/01/01 01:40:25;;;;;;;;;;;;;;;18.46;47.90;100750.69;5133785;28;20402;-56
2023/01/01 01:42:50;;;;;;;;;;;;;;;18.45;47.61;100747.13;5133956;28;19976;-56
2023/01/01 01:45:17;;;;;;;;;;;;;;;18.46;47.75;100756.22;5148668;27;19945;-56
2023/01/01 01:47:57;;;;;;;;;;;;;;;18.45;47.85;100741.59;5135766;27;19962;-56
2023/01/01 01:50:25;;;;;;;;;;;;;;;18.45;47.86;100749.88;5135502;27;20286;-56
2023/01/01 01:52:56;;;;;;;;;;;;;;;18.45;47.83;100749.06;5154254;27;19923;-56
2023/01/01 01:55:22;;;;;;;;;;;;;;;18.44;47.86;100753.75;5134950;27;19970;-56
2023/01/01 01:57:47;;;;;;;;;;;;;;;18.46;47.96;100758.97;5153741;27;19927;-56
2023/01/01 02:00:13;;;;;;;;;;;;;;;18.45;47.93;100749.88;5153837;27;20383;-56
2023/01/01 02:02:41;;;;;;;;;;;;;;;18.44;47.88;100742.72;5154156;27;19980;-56
2023/01/01 02:05:07;;;;;;;;;;;;;;;18.45;47.96;100755.38;5153809;27;19927;-56
2023/01/01 02:07:32;;;;;;;;;;;;;;;18.45;47.87;100758.16;5154450;27;19927;-56
2023/01/01 02:09:58;;;;;;;;;;;;;;;18.45;47.86;100758.16;5154264;27;19927;-56
2023/01/01 02:12:24;;;;;;;;;;;;;;;18.47;47.65;100755.09;5154203;27;19927;-54
2023/01/01 02:14:50;;;;;;;;;;;;;;;18.45;47.88;100763.66;5153754;27;19931;-56
2023/01/01 02:17:20;;;;;;;;;;;;;;;18.46;47.73;100756.22;5153920;27;19923;-56
2023/01/01 02:20:05;;;;;;;;;;;;;;;18.46;47.58;100753.44;5153455;27;19969;-56
2023/01/01 02:22:37;;;;;;;;;;;;;;;18.45;47.77;100749.88;5138486;27;19934;-56
2023/01/01 02:25:07;;;;;;;;;;;;;;;18.45;47.82;100749.88;5153385;27;19980;-56
2023/01/01 02:27:39;;;;;;;;;;;;;;;18.45;47.88;100749.06;5153490;27;19963;-56
2023/01/01 02:30:06;;;;;;;;;;;;;;;18.46;47.66;100754.28;5132484;28;19988;-56
2023/01/01 02:32:51;;;;;;;;;;;;;;;18.46;47.85;100750.69;5131780;28;19923;-56
2023/01/01 02:35:34;;;;;;;;;;;;;;;18.45;47.71;100749.88;5137695;27;20465;-56
2023/01/01 02:38:03;;;;;;;;;;;;;;;18.46;47.86;100757.03;5153743;27;20441;-56
2023/01/01 02:40:28;;;;;;;;;;;;;;;18.46;47.63;100750.69;5153828;27;19923;-56
2023/01/01 02:42:54;;;;;;;;;;;;;;;18.46;47.68;100750.69;5153413;27;19934;-56
2023/01/01 02:45:20;;;;;;;;;;;;;;;18.46;47.63;100753.44;5151988;27;19930;-56
2023/01/01 02:47:45;;;;;;;;;;;;;;;18.46;47.66;100756.22;5153309;27;20355;-56
2023/01/01 02:50:15;;;;;;;;;;;;;;;18.46;47.56;100751.53;5153518;27;19923;-56
2023/01/01 02:52:44;;;;;;;;;;;;;;;18.46;47.76;100753.44;5134553;27;20405;-56
2023/01/01 02:55:15;;;;;;;;;;;;;;;18.45;47.82;100747.13;5152941;27;20406;-55
2023/01/01 02:57:43;;;;;;;;;;;;;;;18.46;47.86;100770.81;5153259;27;20390;-56
2023/01/01 03:00:18;;;;;;;;;;;;;;;18.47;47.95;100755.09;5152943;27;20382;-56
2023/01/01 03:02:49;;;;;;;;;;;;;;;18.46;47.78;100754.28;5153090;27;20439;-56
2023/01/01 03:05:36;;;;;;;;;;;;;;;18.47;47.77;100746.81;5134559;27;19973;-56
2023/01/01 03:08:05;;;;;;;;;;;;;;;18.47;47.77;100760.63;5137795;27;19927;-56
2023/01/01 03:10:33;;;;;;;;;;;;;;;18.46;47.76;100762.56;5152878;27;20401;-56
2023/01/01 03:13:19;;;;;;;;;;;;;;;18.46;47.75;100754.28;5134542;27;20018;-56
2023/01/01 03:15:50;;;;;;;;;;;;;;;18.47;47.90;100760.63;5137137;27;19931;-56
2023/01/01 03:18:17;;;;;;;;;;;;;;;18.47;47.55;100774.41;5153046;27;19927;-56
2023/01/01 03:20:44;;;;;;;;;;;;;;;18.46;47.82;100778.28;5153027;27;19952;-56
2023/01/01 03:23:12;;;;;;;;;;;;;;;18.47;47.89;100788.19;5152202;27;19931;-56
2023/01/01 03:25:40;;;;;;;;;;;;;;;18.46;47.78;100779.09;5118705;27;19967;-56
2023/01/01 03:28:07;;;;;;;;;;;;;;;18.47;47.79;100786.25;5135754;27;19958;-56
2023/01/01 03:30:33;;;;;;;;;;;;;;;18.46;47.73;100790.13;5152824;27;19955;-56
2023/01/01 03:33:00;;;;;;;;;;;;;;;18.46;47.61;100801.16;5152811;27;19923;-56
2023/01/01 03:35:27;;;;;;;;;;;;;;;18.47;47.57;100801.97;5117408;28;19927;-56
2023/01/01 03:37:53;;;;;;;;;;;;;;;18.46;47.74;100790.13;5132260;28;19927;-56
2023/01/01 03:40:19;;;;;;;;;;;;;;;18.47;47.91;100779.91;5131879;28;20321;-56
2023/01/01 03:42:46;;;;;;;;;;;;;;;18.46;47.88;100783.78;5131971;28;20368;-56
2023/01/01 03:45:16;;;;;;;;;;;;;;;18.47;47.85;100797.28;5145610;27;19970;-56
2023/01/01 03:47:41;;;;;;;;;;;;;;;18.47;47.84;100804.72;5134089;27;19948;-56
2023/01/01 03:50:07;;;;;;;;;;;;;;;18.46;47.75;100801.16;5152484;27;19977;-56
2023/01/01 03:52:41;;;;;;;;;;;;;;;18.46;47.66;100803.91;5133623;27;19923;-56
2023/01/01 03:55:09;;;;;;;;;;;;;;;18.47;47.69;100804.72;5151598;27;20336;-56
2023/01/01 03:57:54;;;;;;;;;;;;;;;18.47;47.62;100807.50;5133800;27;20363;-56
2023/01/01 04:00:22;;;;;;;;;;;;;;;18.47;47.76;100813.00;5115564;28;19924;-56
2023/01/01 04:02:50;;;;;;;;;;;;;;;18.47;47.85;100819.34;5130181;28;20294;-56
2023/01/01 04:05:16;;;;;;;;;;;;;;;18.47;47.79;100810.25;5146462;27;19942;-56
2023/01/01 04:07:41;;;;;;;;;;;;;;;18.46;47.90;100812.19;5133215;27;20290;-56
2023/01/01 04:10:22;;;;;;;;;;;;;;;18.47;47.71;100801.97;5133441;27;20382;-56
2023/01/01 04:12:48;;;;;;;;;;;;;;;18.47;47.88;100810.25;5151946;27;20410;-56
2023/01/01 04:15:14;;;;;;;;;;;;;;;18.47;47.77;100807.50;5151484;27;20390;-56
2023/01/01 04:17:40;;;;;;;;;;;;;;;18.47;47.79;100813.00;5133313;27;19966;-56
2023/01/01 04:20:06;;;;;;;;;;;;;;;18.46;47.74;100801.16;5152029;27;19927;-56
2023/01/01 04:22:32;;;;;;;;;;;;;;;18.47;47.81;100811.06;5151661;27;19923;-56
2023/01/01 04:24:57;;;;;;;;;;;;;;;18.47;47.50;100816.59;5150080;27;19929;-56
2023/01/01 04:27:23;;;;;;;;;;;;;;;18.48;47.82;100803.63;5151587;27;20088;-56
2023/01/01 04:29:49;;;;;;;;;;;;;;;18.47;47.80;100808.31;5151544;27;19923;-55
2023/01/01 04:32:14;;;;;;;;;;;;;;;18.47;47.71;100802.78;5151862;27;19923;-56
2023/01/01 04:34:40;;;;;;;;;;;;;;;18.47;47.76;100818.53;5151549;27;19972;-56
2023/01/01 04:37:05;;;;;;;;;;;;;;;18.47;47.63;100800.03;5151798;27;19927;-56
2023/01/01 04:39:38;;;;;;;;;;;;;;;18.48;47.64;100814.66;5151704;27;20546;-56
2023/01/01 04:42:04;;;;;;;;;;;;;;;18.48;47.75;100828.44;5151567;27;19930;-56
2023/01/01 04:44:29;;;;;;;;;;;;;;;18.47;47.71;100827.63;5150332;27;19923;-56
2023/01/01 04:46:55;;;;;;;;;;;;;;;18.48;47.49;100833.94;5151773;27;19923;-56
2023/01/01 04:49:25;;;;;;;;;;;;;;;18.48;47.75;100833.94;5151635;27;20305;-56
2023/01/01 04:51:50;;;;;;;;;;;;;;;18.47;47.62;100829.56;5151665;27;20385;-56
2023/01/01 04:54:16;;;;;;;;;;;;;;;18.48;47.91;100825.69;5150464;27;19965;-56
2023/01/01 04:56:42;;;;;;;;;;;;;;;18.48;47.59;100842.22;5151260;27;19927;-53
2023/01/01 04:59:07;;;;;;;;;;;;;;;18.47;47.69;100835.88;5150814;27;19929;-56
2023/01/01 05:01:33;;;;;;;;;;;;;;;18.47;47.75;100832.31;5132748;27;19958;-56
2023/01/01 05:03:59;;;;;;;;;;;;;;;18.48;47.61;100842.22;5150766;27;19930;-56
2023/01/01 05:06:25;;;;;;;;;;;;;;;18.48;47.56;100833.94;5151539;27;19933;-56
2023/01/01 05:08:51;;;;;;;;;;;;;;;18.48;47.54;100831.19;5132896;27;20332;-56
2023/01/01 05:11:18;;;;;;;;;;;;;;;18.48;47.59;100840.31;5151137;27;20019;-56
2023/01/01 05:13:45;;;;;;;;;;;;;;;18.48;47.59;100839.47;5150563;27;20295;-56
2023/01/01 05:16:11;;;;;;;;;;;;;;;18.47;47.60;100835.88;5150455;27;19963;-56
2023/01/01 05:18:37;;;;;;;;;;;;;;;18.47;47.76;100835.88;5150724;27;19927;-56
2023/01/01 05:21:03;;;;;;;;;;;;;;;18.48;47.82;100839.47;5151076;27;19934;-56
2023/01/01 05:23:29;;;;;;;;;;;;;;;18.49;47.75;100838.38;5150249;27;19970;-56
2023/01/01 05:25:54;;;;;;;;;;;;;;;18.48;47.75;100828.44;5150265;27;19968;-56
2023/01/01 05:28:20;;;;;;;;;;;;;;;18.48;47.68;100834.81;5150482;27;19923;-56
2023/01/01 05:30:46;;;;;;;;;;;;;;;18.48;47.82;100850.50;5132114;27;20100;-56
2023/01/01 05:33:12;;;;;;;;;;;;;;;18.48;47.90;100851.34;5150991;27;19923;-56
2023/01/01 05:35:37;;;;;;;;;;;;;;;18.48;47.94;100847.75;5133506;27;19932;-56
2023/01/01 05:38:03;;;;;;;;;;;;;;;18.47;47.60;100860.72;5130259;28;19939;-56
2023/01/01 05:40:29;;;;;;;;;;;;;;;18.49;47.59;100871.47;5130318;28;20260;-56
2023/01/01 05:42:55;;;;;;;;;;;;;;;18.48;47.79;100862.38;5111653;28;19931;-56
2023/01/01 05:45:20;;;;;;;;;;;;;;;18.48;47.56;100870.66;5145531;27;19949;-56
2023/01/01 05:47:46;;;;;;;;;;;;;;;18.48;47.67;100869.81;5150612;27;19927;-56
2023/01/01 05:50:11;;;;;;;;;;;;;;;18.48;47.72;100870.66;5150826;27;19948;-56
2023/01/01 05:52:37;;;;;;;;;;;;;;;18.48;47.81;100881.69;5131951;27;19927;-56
2023/01/01 05:55:02;;;;;;;;;;;;;;;18.48;47.74;100880.84;5150292;27;19923;-56
2023/01/01 05:57:28;;;;;;;;;;;;;;;18.49;47.73;100883.34;5150466;27;19923;-54
2023/01/01 05:59:53;;;;;;;;;;;;;;;18.49;47.57;100871.47;5150093;27;20119;-56
2023/01/01 06:02:19;;;;;;;;;;;;;;;18.49;47.74;100901.81;5150466;27;20251;-56
2023/01/01 06:04:45;;;;;;;;;;;;;;;18.48;47.57;100898.22;5150286;27;19926;-56
2023/01/01 06:07:10;;;;;;;;;;;;;;;18.48;47.74;100906.50;5131658;27;19975;-56
2023/01/01 06:09:36;;;;;;;;;;;;;;;18.48;47.77;100906.50;5150590;27;19934;-56
2023/01/01 06:12:01;;;;;;;;;;;;;;;18.48;47.77;100909.25;5150521;27;20019;-56
2023/01/01 06:14:27;;;;;;;;;;;;;;;18.49;47.62;100912.84;5150170;27;19923;-56
2023/01/01 06:16:52;;;;;;;;;;;;;;;18.48;47.79;100905.66;5149720;27;19934;-56
2023/01/01 06:19:18;;;;;;;;;;;;;;;18.49;47.56;100910.09;5150005;27;19923;-56
2023/01/01 06:21:44;;;;;;;;;;;;;;;18.49;47.76;100907.31;5150458;27;19923;-56
2023/01/01 06:24:09;;;;;;;;;;;;;;;18.50;47.66;100917.25;5152233;27;20427;-56
2023/01/01 06:26:35;;;;;;;;;;;;;;;18.49;47.55;100926.63;5153402;27;19923;-56
2023/01/01 06:29:01;;;;;;;;;;;;;;;18.50;47.78;100925.53;5153300;27;19923;-56
2023/01/01 06:31:27;;;;;;;;;;;;;;;18.49;47.57;100943.19;5153688;27;19930;-56
2023/01/01 06:33:53;;;;;;;;;;;;;;;18.48;47.57;100941.50;5134916;27;19958;-56
2023/01/01 06:36:19;;;;;;;;;;;;;;;18.49;47.79;100948.69;5153557;27;19922;-56
2023/01/01 06:38:46;;;;;;;;;;;;;;;18.48;47.51;100945.13;5135161;27;20371;-56
2023/01/01 06:41:13;;;;;;;;;;;;;;;18.49;47.88;100952.28;5134752;27;20332;-56
2023/01/01 06:43:38;;;;;;;;;;;;;;;18.50;47.81;100964.13;5134641;27;19923;-56
2023/01/01 06:46:11;;;;;;;;;;;;;;;18.49;47.74;100962.47;5153468;27;20395;-56
2023/01/01 06:48:37;;;;;;;;;;;;;;;18.49;47.75;100966.06;5153790;27;19927;-56
2023/01/01 06:51:04;;;;;;;;;;;;;;;18.49;47.54;100977.09;5153494;27;19951;-56
2023/01/01 06:53:30;;;;;;;;;;;;;;;18.49;47.74;100962.47;5134005;27;19935;-56
2023/01/01 06:55:55;;;;;;;;;;;;;;;18.49;47.83;100976.28;5153091;27;19923;-56
2023/01/01 06:58:22;;;;;;;;;;;;;;;18.50;47.74;100972.41;5153266;27;19934;-56
2023/01/01 07:00:48;;;;;;;;;;;;;;;18.50;47.77;100972.41;5152874;27;19927;-56
2023/01/01 07:03:13;;;;;;;;;;;;;;;18.49;47.71;100974.34;5153146;27;20310;-56
2023/01/01 07:05:39;;;;;;;;;;;;;;;18.50;47.72;100980.69;5152921;27;19923;-56
2023/01/01 07:08:05;;;;;;;;;;;;;;;18.49;47.74;100984.53;5153203;27;19923;-56
2023/01/01 07:10:30;;;;;;;;;;;;;;;18.49;47.75;100988.13;5152681;27;19927;-56
2023/01/01 07:12:56;;;;;;;;;;;;;;;18.49;47.75;100990.88;5153268;27;19934;-56
2023/01/01 07:15:21;;;;;;;;;;;;;;;18.50;47.82;100997.22;5152687;27;19927;-56
2023/01/01 07:17:47;;;;;;;;;;;;;;;18.50;47.70;100997.22;5153311;27;20291;-56
2023/01/01 07:20:13;;;;;;;;;;;;;;;18.49;47.84;101010.19;5153103;27;19930;-56
2023/01/01 07:22:38;;;;;;;;;;;;;;;18.50;47.73;101016.53;5152631;27;20372;-56
2023/01/01 07:25:04;;;;;;;;;;;;;;;18.50;47.75;101027.56;5152134;27;19923;-56
2023/01/01 07:27:30;;;;;;;;;;;;;;;18.50;47.54;101041.34;5152851;27;20340;-53
2023/01/01 07:29:55;;;;;;;;;;;;;;;18.50;47.60;101042.19;5151795;27;19923;-56
2023/01/01 07:32:21;;;;;;;;;;;;;;;18.50;47.56;101050.44;5152814;27;19923;-56
2023/01/01 07:34:46;;;;;;;;;;;;;;;18.50;47.79;101047.69;5152474;27;19934;-56
2023/01/01 07:37:16;;;;;;;;;;;;;;;18.50;47.79;101052.38;5152635;27;19930;-56
2023/01/01 07:39:41;;;;;;;;;;;;;;;18.50;47.80;101049.63;5152536;27;19926;-56
2023/01/01 07:42:07;;;;;;;;;;;;;;;18.49;47.79;101046.03;5152676;27;19931;-56
2023/01/01 07:44:36;;;;;;;;;;;;;;;18.50;47.52;101047.69;5152241;27;20129;-56
2023/01/01 07:47:02;;;;;;;;;;;;;;;18.49;47.74;101053.50;5152625;27;19991;-56
2023/01/01 07:49:28;;;;;;;;;;;;;;;18.50;47.79;101055.13;5134080;27;20444;-56
2023/01/01 07:51:53;;;;;;;;;;;;;;;18.51;47.80;101070.56;5152545;27;19927;-56
2023/01/01 07:54:19;;;;;;;;;;;;;;;18.51;47.68;101073.34;5152120;27;19931;-56
2023/01/01 07:56:44;;;;;;;;;;;;;;;18.50;47.63;101068.94;5152635;27;19975;-56
2023/01/01 07:59:10;;;;;;;;;;;;;;;18.51;47.87;101062.31;5151593;27;19934;-56
2023/01/01 08:01:43;;;;;;;;;;;;;;;18.50;47.69;101078.03;5152291;27;20355;-56
2023/01/01 08:04:09;;;;;;;;;;;;;;;18.51;47.45;101076.09;5151714;27;19934;-56
2023/01/01 08:06:36;;;;;;;;;;;;;;;18.51;47.81;101073.34;5151821;27;19923;-56
2023/01/01 08:09:01;;;;;;;;;;;;;;;18.50;47.63;101072.50;5152180;27;19923;-56
2023/01/01 08:11:27;;;;;;;;;;;;;;;18.50;47.79;101071.69;5133678;27;19991;-56
2023/01/01 08:13:52;;;;;;;;;;;;;;;18.50;47.70;101077.19;5152087;27;19973;-56
2023/01/01 08:16:18;;;;;;;;;;;;;;;18.50;47.83;101089.06;5151667;27;19987;-56
2023/01/01 08:18:43;;;;;;;;;;;;;;;18.51;47.77;101107.25;5152372;27;19930;-56
2023/01/01 08:21:09;;;;;;;;;;;;;;;18.50;47.75;101102.84;5151302;27;19927;-56
2023/01/01 08:23:34;;;;;;;;;;;;;;;18.50;47.84;101086.31;5151116;27;19988;-56
2023/01/01 08:26:00;;;;;;;;;;;;;;;18.51;47.76;101090.72;5151633;27;19930;-56
2023/01/01 08:28:26;;;;;;;;;;;;;;;18.51;47.69;101093.47;5132961;27;20387;-56
2023/01/01 08:30:52;;;;;;;;;;;;;;;18.51;47.54;101093.47;5150668;27;19931;-56
2023/01/01 08:33:17;;;;;;;;;;;;;;;18.51;47.59;101092.63;5151891;27;19927;-56
2023/01/01 08:35:43;;;;;;;;;;;;;;;18.51;47.59;101089.88;5150966;27;19948;-56
2023/01/01 08:38:14;;;;;;;;;;;;;;;18.51;47.54;101117.47;5151696;27;20299;-56
2023/01/01 08:40:39;;;;;;;;;;;;;;;18.51;47.86;101129.31;5151725;27;20389;-56
2023/01/01 08:43:05;;;;;;;;;;;;;;;18.51;47.63;101131.25;5151596;27;19923;-56
2023/01/01 08:45:30;;;;;;;;;;;;;;;18.50;47.62;101140.63;5135312;27;19928;-56
2023/01/01 08:47:56;;;;;;;;;;;;;;;18.51;47.80;101134.00;5131073;28;20392;-56
2023/01/01 08:50:22;;;;;;;;;;;;;;;18.51;47.78;101145.88;5130536;28;19924;-56
2023/01/01 08:52:47;;;;;;;;;;;;;;;18.51;47.59;101145.03;5130880;28;20378;-56
2023/01/01 08:55:13;;;;;;;;;;;;;;;18.51;47.83;101156.06;5130418;27;19923;-56
2023/01/01 08:57:38;;;;;;;;;;;;;;;18.51;47.61;101153.31;5130793;28;19938;-56
2023/01/01 09:00:04;;;;;;;;;;;;;;;18.51;47.74;101162.41;5150729;27;19930;-57
2023/01/01 09:02:30;;;;;;;;;;;;;;;18.51;47.77;101173.44;5132767;27;19970;-55
2023/01/01 09:04:56;;;;;;;;;;;;;;;18.51;47.86;101178.97;5139026;27;19924;-56
2023/01/01 09:07:21;;;;;;;;;;;;;;;18.51;47.69;101175.38;5130682;28;19923;-56
2023/01/01 09:09:47;;;;;;;;;;;;;;;18.51;47.51;101180.91;5130287;28;19963;-56
2023/01/01 09:12:14;;;;;;;;;;;;;;;18.51;47.61;101180.91;5130505;28;19927;-56
2023/01/01 09:14:39;;;;;;;;;;;;;;;18.52;47.78;101182.53;5130221;27;19934;-56
2023/01/01 09:17:05;;;;;;;;;;;;;;;18.51;47.81;101191.94;5130346;28;19924;-56
2023/01/01 09:19:30;;;;;;;;;;;;;;;18.51;47.86;101205.72;5130126;28;20321;-56
2023/01/01 09:21:56;;;;;;;;;;;;;;;18.51;47.55;101198.28;5130578;28;19923;-56
2023/01/01 09:24:21;;;;;;;;;;;;;;;18.51;47.79;101206.53;5129980;27;20326;-56
2023/01/01 09:26:47;;;;;;;;;;;;;;;18.51;47.78;101192.75;5130559;28;19927;-56
2023/01/01 09:29:17;;;;;;;;;;;;;;;18.51;47.74;101195.50;5124671;27;20531;-55
2023/01/01 09:31:43;;;;;;;;;;;;;;;18.51;47.54;101203.78;5150782;27;20717;-55
2023/01/01 09:34:08;;;;;;;;;;;;;;;18.51;47.70;101200.19;5146962;27;19927;-56
2023/01/01 09:36:34;;;;;;;;;;;;;;;18.51;47.68;101201.03;5150827;27;19927;-56
2023/01/01 09:38:59;;;;;;;;;;;;;;;18.51;47.80;101201.03;5148763;27;19924;-56
2023/01/01 09:41:44;;;;;;;;;;;;;;;18.52;47.81;101212.88;5150775;27;19927;-56
2023/01/01 09:44:17;;;;;;;;;;;;;;;18.51;47.74;101220.34;5150471;27;19927;-56
2023/01/01 09:46:42;;;;;;;;;;;;;;;18.51;47.82;101211.22;5150716;27;19966;-56
2023/01/01 09:49:10;;;;;;;;;;;;;;;18.52;47.51;101221.16;5151040;27;19927;-56
2023/01/01 09:51:36;;;;;;;;;;;;;;;18.51;47.72;101209.28;5150867;27;19923;-55
2023/01/01 09:54:16;;;;;;;;;;;;;;;18.52;47.58;101215.63;5150392;27;19930;-56
2023/01/01 09:56:41;;;;;;;;;;;;;;;18.52;47.79;101227.53;5150707;27;20003;-56
2023/01/01 09:59:08;;;;;;;;;;;;;;;18.52;47.67;101229.44;5153166;27;19931;-56
2023/01/01 10:01:51;;;;;;;;;;;;;;;18.51;47.64;101227.78;5135747;27;19927;-56
2023/01/01 10:04:21;;;;;;;;;;;;;;;18.52;47.78;101232.19;5153950;27;19926;-56
2023/01/01 10:06:49;;;;;;;;;;;;;;;18.51;47.72;101236.88;5154369;27;19930;-56
2023/01/01 10:09:19;;;;;;;;;;;;;;;18.52;47.87;101244.06;5154392;27;19958;-56
2023/01/01 10:12:03;;;;;;;;;;;;;;;18.52;47.73;101244.06;5135644;27;19927;-56
2023/01/01 10:14:31;;;;;;;;;;;;;;;18.52;47.79;101238.56;5153463;27;20439;-56
2023/01/01 10:16:57;;;;;;;;;;;;;;;18.52;47.79;101241.31;5135266;27;20335;-55
2023/01/01 10:19:31;;;;;;;;;;;;;;;18.52;47.68;101233.03;5154120;27;19928;-56
2023/01/01 10:22:00;;;;;;;;;;;;;;;18.52;47.74;101212.88;5153999;27;20359;-56
2023/01/01 10:24:30;;;;;;;;;;;;;;;18.52;47.78;101210.97;5152981;27;19957;-56
2023/01/01 10:26:55;;;;;;;;;;;;;;;18.52;47.51;101201.84;5135181;27;19930;-56
2023/01/01 10:29:24;;;;;;;;;;;;;;;18.52;47.81;101212.88;5153468;27;19923;-56
2023/01/01 10:31:49;;;;;;;;;;;;;;;18.52;47.58;101208.22;5153977;27;20287;-56
2023/01/01 10:34:16;;;;;;;;;;;;;;;18.52;47.80;101227.53;5150283;27;20216;-56
2023/01/01 10:36:42;;;;;;;;;;;;;;;18.52;47.67;101222.00;5133110;28;19923;-55
2023/01/01 10:39:11;;;;;;;;;;;;;;;18.52;47.60;101227.53;5132895;28;19939;-56
2023/01/01 10:41:36;;;;;;;;;;;;;;;18.52;47.72;101219.25;5132700;28;20315;-55
2023/01/01 10:44:02;;;;;;;;;;;;;;;18.52;47.58;101216.50;5156814;27;19987;-56
2023/01/01 10:46:28;;;;;;;;;;;;;;;18.52;47.58;101213.75;5132958;28;19927;-56
2023/01/01 10:49:06;;;;;;;;;;;;;;;18.52;47.62;101210.97;5132680;28;19936;-56
2023/01/01 10:51:31;;;;;;;;;;;;;;;18.52;47.61;101197.19;5114407;28;19967;-56
2023/01/01 10:53:57;;;;;;;;;;;;;;;18.52;47.49;101193.56;5132075;27;19950;-56
2023/01/01 10:56:23;;;;;;;;;;;;;;;18.52;47.85;101196.34;5132765;27;19923;-56
2023/01/01 10:58:49;;;;;;;;;;;;;;;18.53;47.81;101206.28;5123696;27;19970;-56
2023/01/01 11:01:19;;;;;;;;;;;;;;;18.52;47.65;101199.09;5153571;27;19923;-56
2023/01/01 11:04:00;;;;;;;;;;;;;;;18.53;47.58;101211.81;5151488;27;19933;-56
2023/01/01 11:06:34;;;;;;;;;;;;;;;18.52;47.88;101199.94;5132735;27;19946;-56
2023/01/01 11:09:02;;;;;;;;;;;;;;;18.53;47.82;101209.06;5113872;28;19927;-56
2023/01/01 11:11:29;;;;;;;;;;;;;;;18.52;47.80;101210.97;5114375;28;20432;-56
2023/01/01 11:13:56;;;;;;;;;;;;;;;18.53;47.68;101220.91;5132294;27;19983;-56
2023/01/01 11:16:22;;;;;;;;;;;;;;;18.53;47.76;101222.84;5131920;27;19931;-56
2023/01/01 11:18:48;;;;;;;;;;;;;;;18.53;47.78;101228.34;5132002;28;19924;-56
2023/01/01 11:21:18;;;;;;;;;;;;;;;18.53;47.80;101242.97;5113991;28;20077;-56
2023/01/01 11:23:44;;;;;;;;;;;;;;;18.53;47.78;101239.38;5131903;27;19931;-56
2023/01/01 11:26:15;;;;;;;;;;;;;;;18.53;47.68;101239.38;5132210;27;19928;-56
2023/01/01 11:28:41;;;;;;;;;;;;;;;18.52;47.81;101235.81;5140377;27;20338;-55
2023/01/01 11:31:21;;;;;;;;;;;;;;;18.53;47.50;101237.47;5152825;27;19927;-55
2023/01/01 11:33:49;;;;;;;;;;;;;;;18.53;47.58;101242.16;5151027;27;20272;-56
2023/01/01 11:36:31;;;;;;;;;;;;;;;18.53;47.77;101242.97;5144772;27;19927;-56
2023/01/01 11:39:17;;;;;;;;;;;;;;;18.53;47.80;101242.97;5152735;27;19930;-56
2023/01/01 11:41:43;;;;;;;;;;;;;;;18.53;47.74;101251.25;5151401;27;19923;-56
2023/01/01 11:44:09;;;;;;;;;;;;;;;18.53;47.89;101248.50;5133630;27;20011;-56
2023/01/01 11:46:36;;;;;;;;;;;;;;;18.53;47.55;101255.94;5152120;27;20029;-55
2023/01/01 11:49:01;;;;;;;;;;;;;;;18.54;47.78;101263.09;5133919;27;19930;-56
2023/01/01 11:51:28;;;;;;;;;;;;;;;18.53;47.83;101254.00;5152224;27;19923;-56
2023/01/01 11:54:07;;;;;;;;;;;;;;;18.53;47.74;101251.25;5133518;27;19983;-56
2023/01/01 11:56:32;;;;;;;;;;;;;;;18.53;47.87;101251.25;5152476;27;19958;-56
2023/01/01 11:58:59;;;;;;;;;;;;;;;18.53;47.82;101247.66;5152039;27;20371;-56
2023/01/01 12:01:26;;;;;;;;;;;;;;;18.53;47.59;101231.94;5134098;27;20418;-56
2023/01/01 12:03:53;;;;;;;;;;;;;;;18.53;47.70;101240.22;5133376;27;20001;-56
2023/01/01 12:06:20;;;;;;;;;;;;;;;18.53;47.83;101229.19;5133529;27;20386;-56
2023/01/01 12:08:50;;;;;;;;;;;;;;;18.54;47.80;101232.75;5151997;27;20430;-56
2023/01/01 12:11:20;;;;;;;;;;;;;;;18.54;47.84;101232.75;5134063;27;20219;-55
2023/01/01 12:14:05;;;;;;;;;;;;;;;18.53;47.62;101234.69;5151997;27;19930;-56
2023/01/01 12:16:39;;;;;;;;;;;;;;;18.54;47.79;101233.59;5136405;27;20371;-56
2023/01/01 12:19:10;;;;;;;;;;;;;;;18.54;47.89;101224.50;5151977;27;20394;-56
2023/01/01 12:21:35;;;;;;;;;;;;;;;18.53;47.78;101223.66;5132559;27;19930;-55
2023/01/01 12:24:03;;;;;;;;;;;;;;;18.55;47.60;101231.66;5151058;27;19923;-56
2023/01/01 12:26:47;;;;;;;;;;;;;;;18.54;47.86;101216.22;5152186;27;19927;-56
2023/01/01 12:29:28;;;;;;;;;;;;;;;18.53;47.78;101215.41;5189473;27;19929;-56
2023/01/01 12:32:03;;;;;;;;;;;;;;;18.54;47.88;101221.72;5189961;27;19926;-56
2023/01/01 12:34:47;;;;;;;;;;;;;;;18.53;47.78;101207.13;5182341;27;19934;-56
2023/01/01 12:37:23;;;;;;;;;;;;;;;18.54;47.74;101210.69;5168483;27;19966;-56
2023/01/01 12:40:09;;;;;;;;;;;;;;;18.54;47.92;101208.78;5168381;27;19969;-56